createdAt,value
2023-05-09T00:00:37.059Z,100775.25
2023-05-09T00:05:38.721Z,100773.41
2023-05-09T00:10:40.323Z,100777.84
2023-05-09T00:15:41.706Z,100769.00
2023-05-09T00:20:44.111Z,100768.19
2023-05-09T00:25:45.534Z,100770.69
2023-05-09T00:30:46.940Z,100759.16
2023-05-09T00:35:48.305Z,100760.22
2023-05-09T00:40:49.680Z,100747.59
2023-05-09T00:45:51.077Z,100743.22
2023-05-09T00:50:52.953Z,100745.50
2023-05-09T00:55:55.674Z,100743.22
2023-05-09T01:00:57.507Z,100742.59
2023-05-09T01:06:17.623Z,100734.63
2023-05-09T01:11:53.659Z,100742.38
2023-05-09T01:17:35.035Z,100733.06
2023-05-09T01:22:36.593Z,100729.97
2023-05-09T01:28:02.714Z,100720.69
2023-05-09T01:33:06.596Z,100707.44
2023-05-09T01:38:12.728Z,100709.72
2023-05-09T01:43:14.939Z,100711.41
2023-05-09T01:48:16.326Z,100712.84
2023-05-09T01:53:17.725Z,100708.84
2023-05-09T01:58:19.125Z,100706.13
2023-05-09T02:03:21.104Z,100699.13
2023-05-09T02:08:22.515Z,100700.81
2023-05-09T02:13:24.090Z,100692.84
2023-05-09T02:18:25.508Z,100689.44
2023-05-09T02:23:26.894Z,100694.91
2023-05-09T02:28:28.308Z,100701.59
2023-05-09T02:33:29.714Z,100693.00
2023-05-09T02:38:31.286Z,100691.28
2023-05-09T02:43:32.671Z,100689.59
2023-05-09T02:48:34.326Z,100692.13
2023-05-09T02:53:35.705Z,100694.44
2023-05-09T02:58:37.136Z,100695.47
2023-05-09T03:03:38.618Z,100697.38
2023-05-09T03:08:40.170Z,100691.69
2023-05-09T03:13:41.638Z,100682.22
2023-05-09T03:18:43.038Z,100680.53
2023-05-09T03:23:44.519Z,100682.81
2023-05-09T03:28:46.258Z,100675.91
2023-05-09T03:33:47.688Z,100664.75
2023-05-09T03:38:49.077Z,100666.66
2023-05-09T03:43:50.608Z,100665.38
2023-05-09T03:48:51.978Z,100659.28
2023-05-09T03:53:53.401Z,100663.50
2023-05-09T03:58:54.813Z,100652.56
2023-05-09T04:03:57.490Z,100650.63
2023-05-09T04:08:58.908Z,100648.53
2023-05-09T04:14:00.278Z,100652.91
2023-05-09T04:19:01.722Z,100658.38
2023-05-09T04:24:03.173Z,100652.25
2023-05-09T04:29:04.576Z,100656.88
2023-05-09T04:34:06.424Z,100650.38
2023-05-09T04:39:10.900Z,100649.28
2023-05-09T04:44:12.310Z,100642.06
2023-05-09T04:49:13.714Z,100636.16
2023-05-09T04:54:15.085Z,100639.13
2023-05-09T04:59:16.498Z,100637.38
2023-05-09T05:04:17.925Z,100622.88
2023-05-09T05:09:19.331Z,100623.47
2023-05-09T05:14:20.698Z,100634.56
2023-05-09T05:19:22.132Z,100622.56
2023-05-09T05:24:23.544Z,100625.28
2023-05-09T05:29:24.919Z,100612.84
2023-05-09T05:34:26.670Z,100619.16
2023-05-09T05:39:28.109Z,100622.09
2023-05-09T05:44:29.499Z,100608.81
2023-05-09T05:49:30.898Z,100611.31
2023-05-09T05:54:32.289Z,100606.47
2023-05-09T05:59:33.652Z,100596.84
2023-05-09T06:04:35.039Z,100591.72
2023-05-09T06:09:36.435Z,100582.91
2023-05-09T06:14:37.935Z,100582.72
2023-05-09T06:19:39.347Z,100582.25
2023-05-09T06:24:40.719Z,100576.78
2023-05-09T06:29:42.122Z,100570.69
2023-05-09T06:34:43.598Z,100564.53
2023-05-09T06:39:44.988Z,100562.91
2023-05-09T06:44:46.397Z,100557.72
2023-05-09T06:49:47.824Z,100561.94
2023-05-09T06:54:49.239Z,100546.94
2023-05-09T06:59:50.664Z,100536.97
2023-05-09T07:04:52.127Z,100539.13
2023-05-09T07:10:00.645Z,100529.81
2023-05-09T07:15:09.602Z,100522.47
2023-05-09T07:20:11.097Z,100515.47
2023-05-09T07:25:12.477Z,100516.91
2023-05-09T07:30:14.329Z,100507.59
2023-05-09T07:35:16.202Z,100506.53
2023-05-09T07:40:17.983Z,100502.75
2023-05-09T07:45:21.982Z,100492.63
2023-05-09T07:50:25.041Z,100492.28
2023-05-09T07:55:26.578Z,100486.69
2023-05-09T08:00:27.976Z,100478.72
2023-05-09T08:05:29.353Z,100477.31
2023-05-09T08:10:32.076Z,100473.72
2023-05-09T08:15:33.510Z,100460.41
2023-05-09T08:20:36.060Z,100461.84
2023-05-09T08:25:37.758Z,100459.09
2023-05-09T08:30:39.273Z,100448.53
2023-05-09T08:35:40.724Z,100445.06
2023-05-09T08:40:42.128Z,100435.06
2023-05-09T08:45:50.271Z,100430.91
2023-05-09T08:50:51.680Z,100429.22
2023-05-09T08:55:53.103Z,100410.44
2023-05-09T09:00:55.527Z,100414.38
2023-05-09T09:05:57.011Z,100415.88
2023-05-09T09:10:58.469Z,100403.63
2023-05-09T09:16:00.099Z,100408.03
2023-05-09T09:21:10.927Z,100407.06
2023-05-09T09:26:12.465Z,100405.03
2023-05-09T09:31:20.805Z,100407.78
2023-05-09T09:36:29.077Z,100408.72
2023-05-09T09:41:37.841Z,100415.28
2023-05-09T09:46:48.707Z,100398.13
2023-05-09T09:51:53.967Z,100394.31
2023-05-09T09:56:56.411Z,100385.03
2023-05-09T10:02:07.969Z,100384.28
2023-05-09T10:07:12.794Z,100384.44
2023-05-09T10:12:19.503Z,100382.78
2023-05-09T10:17:21.391Z,100378.59
2023-05-09T10:22:22.998Z,100368.47
2023-05-09T10:27:25.930Z,100360.19
2023-05-09T10:32:29.436Z,100350.53
2023-05-09T10:37:31.675Z,100345.66
2023-05-09T10:42:34.829Z,100340.88
2023-05-09T10:47:36.315Z,100334.31
2023-05-09T10:53:05.713Z,100316.25
2023-05-09T10:58:33.511Z,100298.06
2023-05-09T11:03:54.594Z,100299.59
2023-05-09T11:08:56.024Z,100295.22
2023-05-09T11:13:58.260Z,100282.84
2023-05-09T11:18:59.644Z,100279.78
2023-05-09T11:24:01.293Z,100268.22
2023-05-09T11:29:02.817Z,100262.16
2023-05-09T11:34:06.242Z,100246.00
2023-05-09T11:39:09.226Z,100234.78
2023-05-09T11:44:20.230Z,100229.81
2023-05-09T11:49:21.611Z,100229.81
2023-05-09T11:54:23.407Z,100215.06
2023-05-09T11:59:24.781Z,100200.53
2023-05-09T12:04:26.724Z,100200.28
2023-05-09T12:09:35.197Z,100179.72
2023-05-09T12:14:36.598Z,100184.47
2023-05-09T12:19:37.989Z,100180.81
2023-05-09T12:24:39.379Z,100172.91
2023-05-09T12:29:44.062Z,100172.91
2023-05-09T12:34:47.581Z,100165.81
2023-05-09T12:40:02.313Z,100158.09
2023-05-09T12:45:04.318Z,100158.56
2023-05-09T12:50:06.467Z,100148.47
2023-05-09T12:55:09.448Z,100137.53
2023-05-09T13:00:12.033Z,100136.13
2023-05-09T13:05:15.902Z,100135.75
2023-05-09T13:10:24.049Z,100116.63
2023-05-09T13:15:27.565Z,100109.72
2023-05-09T13:20:29.004Z,100097.94
2023-05-09T13:25:30.545Z,100091.06
2023-05-09T13:30:31.983Z,100081.78
2023-05-09T13:35:33.369Z,100079.22
2023-05-09T13:40:35.145Z,100058.16
2023-05-09T13:45:36.569Z,100050.03
2023-05-09T13:50:37.996Z,100034.94
2023-05-09T13:55:39.376Z,100041.50
2023-05-09T14:00:41.695Z,100023.16
2023-05-09T14:05:43.260Z,100002.63
2023-05-09T14:10:44.631Z,100003.94
2023-05-09T14:15:46.083Z,100002.53
2023-05-09T14:20:47.490Z,99993.50
2023-05-09T14:25:48.857Z,99990.50
2023-05-09T14:30:50.266Z,99980.06
2023-05-09T14:35:51.642Z,99972.44
2023-05-09T14:40:53.084Z,99967.28
2023-05-09T14:45:54.738Z,99966.13
2023-05-09T14:50:56.857Z,99949.66
2023-05-09T14:55:58.279Z,99940.94
2023-05-09T15:01:01.149Z,99935.13
2023-05-09T15:06:02.626Z,99931.63
2023-05-09T15:11:04.002Z,99929.91
2023-05-09T15:16:05.436Z,99929.34
2023-05-09T15:21:06.822Z,99925.53
2023-05-09T15:26:08.732Z,99915.09
2023-05-09T15:31:10.173Z,99904.38
2023-05-09T15:36:11.621Z,99905.72
2023-05-09T15:41:13.027Z,99905.63
2023-05-09T15:46:14.451Z,99893.63
2023-05-09T15:51:16.250Z,99895.78
2023-05-09T15:56:17.642Z,99888.91
2023-05-09T16:01:19.096Z,99883.69
2023-05-09T16:06:20.495Z,99881.19
2023-05-09T16:11:22.249Z,99878.78
2023-05-09T16:16:23.697Z,99874.88
2023-05-09T16:21:28.958Z,99868.03
2023-05-09T16:26:30.481Z,99858.41
2023-05-09T16:31:33.331Z,99863.88
2023-05-09T16:36:38.151Z,99862.22
2023-05-09T16:41:40.688Z,99858.91
2023-05-09T16:46:42.157Z,99851.53
2023-05-09T16:51:43.896Z,99843.34
2023-05-09T16:56:45.323Z,99840.25
2023-05-09T17:01:47.460Z,99826.09
2023-05-09T17:06:51.160Z,99823.50
2023-05-09T17:11:52.547Z,99824.59
2023-05-09T17:16:53.993Z,99813.41
2023-05-09T17:21:55.932Z,99811.44
2023-05-09T17:26:57.357Z,99812.44
2023-05-09T17:32:02.144Z,99806.69
2023-05-09T17:37:05.543Z,99803.41
2023-05-09T17:42:07.670Z,99801.72
2023-05-09T17:47:09.290Z,99798.19
2023-05-09T17:52:10.662Z,99795.34
2023-05-09T17:57:12.127Z,99798.34
2023-05-09T18:02:13.578Z,99792.06
2023-05-09T18:07:14.963Z,99791.56
2023-05-09T18:12:16.336Z,99778.88
2023-05-09T18:17:17.712Z,99772.59
2023-05-09T18:22:20.250Z,99771.75
2023-05-09T18:27:21.783Z,99770.13
2023-05-09T18:32:23.171Z,99766.78
2023-05-09T18:37:24.702Z,99767.38
2023-05-09T18:42:26.828Z,99771.19
2023-05-09T18:47:28.264Z,99779.16
2023-05-09T18:52:31.666Z,99769.78
2023-05-09T18:57:33.681Z,99774.75
2023-05-09T19:02:35.080Z,99766.78
2023-05-09T19:07:37.090Z,99757.47
2023-05-09T19:12:38.515Z,99755.28
2023-05-09T19:17:40.118Z,99747.59
2023-05-09T19:22:45.417Z,99752.81
2023-05-09T19:27:46.959Z,99747.09
2023-05-09T19:32:48.494Z,99756.13
2023-05-09T19:37:49.936Z,99752.00
2023-05-09T19:42:51.369Z,99743.47
2023-05-09T19:47:54.377Z,99745.13
2023-05-09T19:52:56.935Z,99744.13
2023-05-09T19:57:58.314Z,99741.28
2023-05-09T20:02:59.775Z,99733.59
2023-05-09T20:08:01.233Z,99736.09
2023-05-09T20:13:04.216Z,99734.53
2023-05-09T20:18:06.971Z,99723.59
2023-05-09T20:23:08.410Z,99721.88
2023-05-09T20:28:11.716Z,99719.13
2023-05-09T20:33:13.098Z,99704.63
2023-05-09T20:38:14.558Z,99709.84
2023-05-09T20:43:16.029Z,99702.41
2023-05-09T20:48:17.416Z,99693.66
2023-05-09T20:53:18.857Z,99689.38
2023-05-09T20:58:20.300Z,99684.69
2023-05-09T21:03:21.785Z,99677.81
2023-05-09T21:08:23.224Z,99681.06
2023-05-09T21:13:24.721Z,99668.22
2023-05-09T21:18:27.291Z,99659.19
2023-05-09T21:23:28.706Z,99643.03
2023-05-09T21:28:30.295Z,99638.91
2023-05-09T21:33:31.700Z,99644.97
2023-05-09T21:38:33.068Z,99640.31
2023-05-09T21:43:34.481Z,99634.84
2023-05-09T21:48:35.933Z,99631.81
2023-05-09T21:53:37.353Z,99638.69
2023-05-09T21:58:38.847Z,99626.91
2023-05-09T22:03:40.321Z,99631.22
2023-05-09T22:08:41.825Z,99626.59
2023-05-09T22:13:43.408Z,99626.09
2023-05-09T22:18:44.794Z,99618.72
2023-05-09T22:23:46.181Z,99621.97
2023-05-09T22:28:48.604Z,99612.03
2023-05-09T22:33:49.975Z,99613.19
2023-05-09T22:38:51.527Z,99605.84
2023-05-09T22:43:52.993Z,99603.34
2023-05-09T22:48:54.375Z,99594.31
2023-05-09T22:53:55.764Z,99581.25
2023-05-09T22:58:57.162Z,99583.16
2023-05-09T23:03:58.540Z,99575.19
2023-05-09T23:09:00.226Z,99569.72
2023-05-09T23:14:02.432Z,99568.97
2023-05-09T23:19:04.276Z,99564.09
2023-05-09T23:24:06.034Z,99561.28
2023-05-09T23:29:07.412Z,99557.97
2023-05-09T23:34:08.814Z,99547.63
2023-05-09T23:39:10.332Z,99545.47
2023-05-09T23:44:12.218Z,99543.56
2023-05-09T23:49:14.470Z,99537.53
2023-05-09T23:54:16.431Z,99536.72
2023-05-09T23:59:17.803Z,99536.72
